sensor_id;sensor_type;location;lat;lon;timestamp;temperature;humidity
14924;DHT22;7554;43.600;1.480;2024-03-02T01:45:58;11.20;1.00
14924;DHT22;7554;43.600;1.480;2024-03-02T01:48:26;11.10;1.00
14924;DHT22;7554;43.600;1.480;2024-03-02T01:50:53;10.70;1.00
14924;DHT22;7554;43.600;1.480;2024-03-02T01:53:21;10.30;1.00
14924;DHT22;7554;43.600;1.480;2024-03-02T01:55:50;10.30;1.00
14924;DHT22;7554;43.600;1.480;2024-03-02T01:58:18;10.30;1.00
14924;DHT22;7554;43.600;1.480;2024-03-02T02:00:45;10.30;1.00
14924;DHT22;7554;43.600;1.480;2024-03-02T02:03:14;10.20;1.00
14924;DHT22;7554;43.600;1.480;2024-03-02T02:05:42;10.10;1.00
14924;DHT22;7554;43.600;1.480;2024-03-02T02:08:09;10.00;1.00
14924;DHT22;7554;43.600;1.480;2024-03-02T02:10:37;9.90;1.00
14924;DHT22;7554;43.600;1.480;2024-03-02T02:13:06;9.80;1.00
14924;DHT22;7554;43.600;1.480;2024-03-02T02:15:34;9.70;1.00
14924;DHT22;7554;43.600;1.480;2024-03-02T02:18:02;9.60;1.00
14924;DHT22;7554;43.600;1.480;2024-03-02T02:20:30;9.60;1.00
14924;DHT22;7554;43.600;1.480;2024-03-02T02:22:59;9.70;1.00
14924;DHT22;7554;43.600;1.480;2024-03-02T02:25:27;9.60;1.00
14924;DHT22;7554;43.600;1.480;2024-03-02T02:27:55;9.60;1.00
14924;DHT22;7554;43.600;1.480;2024-03-02T02:30:23;9.60;1.00
14924;DHT22;7554;43.600;1.480;2024-03-02T02:32:51;9.60;1.00
14924;DHT22;7554;43.600;1.480;2024-03-02T02:35:19;9.70;1.00
14924;DHT22;7554;43.600;1.480;2024-03-02T02:37:47;9.70;1.00
14924;DHT22;7554;43.600;1.480;2024-03-02T02:40:17;9.80;1.00
14924;DHT22;7554;43.600;1.480;2024-03-02T02:42:45;9.80;1.00
14924;DHT22;7554;43.600;1.480;2024-03-02T02:45:13;9.80;1.00
14924;DHT22;7554;43.600;1.480;2024-03-02T02:47:41;9.80;1.00
14924;DHT22;7554;43.600;1.480;2024-03-02T02:50:09;9.80;1.00
14924;DHT22;7554;43.600;1.480;2024-03-02T02:52:37;9.80;1.00
14924;DHT22;7554;43.600;1.480;2024-03-02T02:55:07;9.80;1.00
14924;DHT22;7554;43.600;1.480;2024-03-02T02:57:37;9.70;1.00
14924;DHT22;7554;43.600;1.480;2024-03-02T03:00:06;9.60;1.00
14924;DHT22;7554;43.600;1.480;2024-03-02T03:02:37;9.50;1.00
14924;DHT22;7554;43.600;1.480;2024-03-02T03:05:06;9.50;1.00
14924;DHT22;7554;43.600;1.480;2024-03-02T03:07:35;9.40;1.00
14924;DHT22;7554;43.600;1.480;2024-03-02T03:10:02;9.40;1.00
14924;DHT22;7554;43.600;1.480;2024-03-02T03:12:30;9.30;1.00
14924;DHT22;7554;43.600;1.480;2024-03-02T03:14:59;9.30;1.00
14924;DHT22;7554;43.600;1.480;2024-03-02T03:17:27;9.20;1.00
14924;DHT22;7554;43.600;1.480;2024-03-02T03:19:54;9.20;1.00
14924;DHT22;7554;43.600;1.480;2024-03-02T03:22:22;9.20;1.00
14924;DHT22;7554;43.600;1.480;2024-03-02T03:24:49;9.10;1.00
14924;DHT22;7554;43.600;1.480;2024-03-02T03:27:16;9.10;1.00
14924;DHT22;7554;43.600;1.480;2024-03-02T03:29:44;9.10;1.00
14924;DHT22;7554;43.600;1.480;2024-03-02T03:32:12;9.10;1.00
14924;DHT22;7554;43.600;1.480;2024-03-02T03:34:40;9.00;1.00
14924;DHT22;7554;43.600;1.480;2024-03-02T03:37:07;8.90;1.00
14924;DHT22;7554;43.600;1.480;2024-03-02T03:39:35;9.00;1.00
14924;DHT22;7554;43.600;1.480;2024-03-02T03:42:03;8.90;1.00
14924;DHT22;7554;43.600;1.480;2024-03-02T03:44:30;8.80;1.00
14924;DHT22;7554;43.600;1.480;2024-03-02T03:46:57;8.90;1.00
14924;DHT22;7554;43.600;1.480;2024-03-02T03:49:26;8.80;1.00
14924;DHT22;7554;43.600;1.480;2024-03-02T03:51:53;8.80;1.00
14924;DHT22;7554;43.600;1.480;2024-03-02T03:54:21;8.80;1.00
14924;DHT22;7554;43.600;1.480;2024-03-02T03:56:48;8.80;1.00
14924;DHT22;7554;43.600;1.480;2024-03-02T03:59:15;8.70;1.00
14924;DHT22;7554;43.600;1.480;2024-03-02T04:01:43;8.70;1.00
14924;DHT22;7554;43.600;1.480;2024-03-02T04:04:10;8.70;1.00
14924;DHT22;7554;43.600;1.480;2024-03-02T04:06:39;8.70;1.00
14924;DHT22;7554;43.600;1.480;2024-03-02T04:09:06;8.70;1.00
14924;DHT22;7554;43.600;1.480;2024-03-02T04:11:34;8.70;1.00
14924;DHT22;7554;43.600;1.480;2024-03-02T04:14:01;8.70;1.00
14924;DHT22;7554;43.600;1.480;2024-03-02T04:16:29;8.60;1.00
14924;DHT22;7554;43.600;1.480;2024-03-02T04:18:56;8.70;1.00
14924;DHT22;7554;43.600;1.480;2024-03-02T04:21:23;8.60;1.00
14924;DHT22;7554;43.600;1.480;2024-03-02T04:23:52;8.60;1.00
14924;DHT22;7554;43.600;1.480;2024-03-02T04:26:23;8.60;1.00
14924;DHT22;7554;43.600;1.480;2024-03-02T04:28:51;8.60;1.00
14924;DHT22;7554;43.600;1.480;2024-03-02T04:31:18;8.50;1.00
14924;DHT22;7554;43.600;1.480;2024-03-02T04:33:45;8.60;1.00
14924;DHT22;7554;43.600;1.480;2024-03-02T04:36:13;8.50;1.00
14924;DHT22;7554;43.600;1.480;2024-03-02T04:38:40;8.50;1.00
14924;DHT22;7554;43.600;1.480;2024-03-02T04:41:09;8.50;1.00
14924;DHT22;7554;43.600;1.480;2024-03-02T04:43:36;8.50;1.00
14924;DHT22;7554;43.600;1.480;2024-03-02T04:46:04;8.60;1.00
14924;DHT22;7554;43.600;1.480;2024-03-02T04:48:32;8.70;1.00
14924;DHT22;7554;43.600;1.480;2024-03-02T04:50:59;8.70;1.00
14924;DHT22;7554;43.600;1.480;2024-03-02T04:53:27;8.70;1.00
14924;DHT22;7554;43.600;1.480;2024-03-02T04:55:54;8.70;1.00
14924;DHT22;7554;43.600;1.480;2024-03-02T04:58:36;8.70;1.00
14924;DHT22;7554;43.600;1.480;2024-03-02T05:01:04;8.70;1.00
14924;DHT22;7554;43.600;1.480;2024-03-02T05:03:32;8.80;1.00
14924;DHT22;7554;43.600;1.480;2024-03-02T05:06:00;8.80;1.00
14924;DHT22;7554;43.600;1.480;2024-03-02T05:08:28;8.80;1.00
14924;DHT22;7554;43.600;1.480;2024-03-02T05:10:55;8.80;1.00
14924;DHT22;7554;43.600;1.480;2024-03-02T05:13:44;8.70;1.00
14924;DHT22;7554;43.600;1.480;2024-03-02T05:16:10;8.50;1.00
14924;DHT22;7554;43.600;1.480;2024-03-02T05:18:37;8.50;1.00
14924;DHT22;7554;43.600;1.480;2024-03-02T05:21:05;8.50;1.00
14924;DHT22;7554;43.600;1.480;2024-03-02T05:23:32;8.50;1.00
14924;DHT22;7554;43.600;1.480;2024-03-02T05:26:00;8.60;1.00
14924;DHT22;7554;43.600;1.480;2024-03-02T05:28:27;8.50;1.00
14924;DHT22;7554;43.600;1.480;2024-03-02T05:30:56;8.50;1.00
14924;DHT22;7554;43.600;1.480;2024-03-02T05:33:23;8.50;1.00
14924;DHT22;7554;43.600;1.480;2024-03-02T05:35:50;8.50;1.00
14924;DHT22;7554;43.600;1.480;2024-03-02T05:38:18;8.50;1.00
14924;DHT22;7554;43.600;1.480;2024-03-02T05:40:45;8.50;1.00
14924;DHT22;7554;43.600;1.480;2024-03-02T05:43:12;8.50;1.00
14924;DHT22;7554;43.600;1.480;2024-03-02T05:45:40;8.40;1.00
14924;DHT22;7554;43.600;1.480;2024-03-02T05:48:09;8.40;1.00
14924;DHT22;7554;43.600;1.480;2024-03-02T05:50:36;8.40;1.00
14924;DHT22;7554;43.600;1.480;2024-03-02T05:53:04;8.50;1.00
14924;DHT22;7554;43.600;1.480;2024-03-02T05:55:31;8.50;1.00
14924;DHT22;7554;43.600;1.480;2024-03-02T05:57:58;8.50;1.00
14924;DHT22;7554;43.600;1.480;2024-03-02T06:00:41;8.50;1.00
14924;DHT22;7554;43.600;1.480;2024-03-02T06:03:10;8.50;1.00
14924;DHT22;7554;43.600;1.480;2024-03-02T06:05:38;8.40;1.00
14924;DHT22;7554;43.600;1.480;2024-03-02T06:08:06;8.40;1.00
14924;DHT22;7554;43.600;1.480;2024-03-02T06:10:34;8.30;1.00
14924;DHT22;7554;43.600;1.480;2024-03-02T06:13:01;8.40;1.00
14924;DHT22;7554;43.600;1.480;2024-03-02T06:15:28;8.40;1.00
14924;DHT22;7554;43.600;1.480;2024-03-02T06:17:56;8.20;1.00
14924;DHT22;7554;43.600;1.480;2024-03-02T06:20:24;8.30;1.00
14924;DHT22;7554;43.600;1.480;2024-03-02T06:22:52;8.30;1.00
14924;DHT22;7554;43.600;1.480;2024-03-02T06:25:19;8.40;1.00
14924;DHT22;7554;43.600;1.480;2024-03-02T06:27:47;8.40;1.00
14924;DHT22;7554;43.600;1.480;2024-03-02T06:30:15;8.50;1.00
14924;DHT22;7554;43.600;1.480;2024-03-02T06:32:42;8.50;1.00
14924;DHT22;7554;43.600;1.480;2024-03-02T06:35:09;8.50;1.00
14924;DHT22;7554;43.600;1.480;2024-03-02T06:37:39;8.40;1.00
14924;DHT22;7554;43.600;1.480;2024-03-02T06:40:08;8.30;1.00
14924;DHT22;7554;43.600;1.480;2024-03-02T06:42:35;8.10;1.00
14924;DHT22;7554;43.600;1.480;2024-03-02T06:45:03;8.30;1.00
14924;DHT22;7554;43.600;1.480;2024-03-02T06:47:31;8.30;1.00
14924;DHT22;7554;43.600;1.480;2024-03-02T06:49:58;8.30;1.00
14924;DHT22;7554;43.600;1.480;2024-03-02T06:52:25;8.40;1.00
14924;DHT22;7554;43.600;1.480;2024-03-02T06:54:54;8.40;1.00
14924;DHT22;7554;43.600;1.480;2024-03-02T06:57:21;8.60;1.00
14924;DHT22;7554;43.600;1.480;2024-03-02T06:59:50;8.50;1.00
14924;DHT22;7554;43.600;1.480;2024-03-02T07:02:20;8.60;1.00
14924;DHT22;7554;43.600;1.480;2024-03-02T07:04:48;8.60;1.00
14924;DHT22;7554;43.600;1.480;2024-03-02T07:07:17;8.50;1.00
14924;DHT22;7554;43.600;1.480;2024-03-02T07:09:44;8.70;1.00
14924;DHT22;7554;43.600;1.480;2024-03-02T07:12:13;8.90;1.00
14924;DHT22;7554;43.600;1.480;2024-03-02T07:14:40;9.00;1.00
14924;DHT22;7554;43.600;1.480;2024-03-02T07:17:21;9.20;1.00
14924;DHT22;7554;43.600;1.480;2024-03-02T07:19:48;9.30;1.00
14924;DHT22;7554;43.600;1.480;2024-03-02T07:22:16;9.50;1.00
14924;DHT22;7554;43.600;1.480;2024-03-02T07:24:44;9.60;1.00
14924;DHT22;7554;43.600;1.480;2024-03-02T07:27:13;9.60;1.00
14924;DHT22;7554;43.600;1.480;2024-03-02T07:29:40;9.60;1.00
14924;DHT22;7554;43.600;1.480;2024-03-02T07:32:08;9.50;1.00
14924;DHT22;7554;43.600;1.480;2024-03-02T07:34:36;9.50;1.00
14924;DHT22;7554;43.600;1.480;2024-03-02T07:37:04;9.40;1.00
14924;DHT22;7554;43.600;1.480;2024-03-02T07:39:32;9.50;1.00
14924;DHT22;7554;43.600;1.480;2024-03-02T07:41:59;9.40;1.00
14924;DHT22;7554;43.600;1.480;2024-03-02T07:44:28;9.50;1.00
14924;DHT22;7554;43.600;1.480;2024-03-02T07:46:56;9.40;1.00
14924;DHT22;7554;43.600;1.480;2024-03-02T07:49:23;9.90;1.00
14924;DHT22;7554;43.600;1.480;2024-03-02T07:51:50;13.80;1.00
14924;DHT22;7554;43.600;1.480;2024-03-02T07:54:18;15.60;1.00
14924;DHT22;7554;43.600;1.480;2024-03-02T07:56:45;15.80;1.00
14924;DHT22;7554;43.600;1.480;2024-03-02T07:59:13;13.90;1.00
14924;DHT22;7554;43.600;1.480;2024-03-02T08:01:42;12.90;1.00
14924;DHT22;7554;43.600;1.480;2024-03-02T08:04:09;13.80;1.00
14924;DHT22;7554;43.600;1.480;2024-03-02T08:06:37;15.00;1.00
14924;DHT22;7554;43.600;1.480;2024-03-02T08:09:04;15.90;1.00
14924;DHT22;7554;43.600;1.480;2024-03-02T08:11:35;14.80;1.00
14924;DHT22;7554;43.600;1.480;2024-03-02T08:14:03;14.50;1.00
14924;DHT22;7554;43.600;1.480;2024-03-02T08:16:30;15.50;1.00
14924;DHT22;7554;43.600;1.480;2024-03-02T08:19:00;18.10;1.00
14924;DHT22;7554;43.600;1.480;2024-03-02T08:21:27;19.70;1.00
14924;DHT22;7554;43.600;1.480;2024-03-02T08:23:56;20.80;1.00
14924;DHT22;7554;43.600;1.480;2024-03-02T08:26:24;19.30;1.00
14924;DHT22;7554;43.600;1.480;2024-03-02T08:28:54;16.90;1.00
14924;DHT22;7554;43.600;1.480;2024-03-02T08:31:22;15.10;1.00
14924;DHT22;7554;43.600;1.480;2024-03-02T08:33:49;14.80;1.00
14924;DHT22;7554;43.600;1.480;2024-03-02T08:36:18;14.10;1.00
14924;DHT22;7554;43.600;1.480;2024-03-02T08:38:45;14.00;1.00
14924;DHT22;7554;43.600;1.480;2024-03-02T08:41:12;14.10;1.00
14924;DHT22;7554;43.600;1.480;2024-03-02T08:43:42;13.60;1.00
14924;DHT22;7554;43.600;1.480;2024-03-02T08:46:10;13.50;1.00
14924;DHT22;7554;43.600;1.480;2024-03-02T08:48:37;13.30;1.00
14924;DHT22;7554;43.600;1.480;2024-03-02T08:51:05;12.20;1.00
14924;DHT22;7554;43.600;1.480;2024-03-02T08:53:35;11.70;1.00
14924;DHT22;7554;43.600;1.480;2024-03-02T08:56:02;11.80;1.00
14924;DHT22;7554;43.600;1.480;2024-03-02T08:58:31;11.90;1.00
14924;DHT22;7554;43.600;1.480;2024-03-02T09:00:59;12.00;1.00
14924;DHT22;7554;43.600;1.480;2024-03-02T09:03:26;11.70;1.00
14924;DHT22;7554;43.600;1.480;2024-03-02T09:05:57;11.80;1.00
14924;DHT22;7554;43.600;1.480;2024-03-02T09:08:24;12.10;1.00
14924;DHT22;7554;43.600;1.480;2024-03-02T09:10:53;11.80;1.00
14924;DHT22;7554;43.600;1.480;2024-03-02T09:13:20;11.90;1.00
14924;DHT22;7554;43.600;1.480;2024-03-02T09:15:48;12.10;4.50
14924;DHT22;7554;43.600;1.480;2024-03-02T09:18:15;12.40;7.90
14924;DHT22;7554;43.600;1.480;2024-03-02T09:20:43;12.50;15.60
14924;DHT22;7554;43.600;1.480;2024-03-02T09:23:10;12.50;24.30
14924;DHT22;7554;43.600;1.480;2024-03-02T09:25:37;12.40;43.60
14924;DHT22;7554;43.600;1.480;2024-03-02T09:28:06;11.90;54.00
14924;DHT22;7554;43.600;1.480;2024-03-02T09:30:34;12.00;95.90
14924;DHT22;7554;43.600;1.480;2024-03-02T09:33:01;12.10;99.90
14924;DHT22;7554;43.600;1.480;2024-03-02T09:35:28;12.60;99.90
14924;DHT22;7554;43.600;1.480;2024-03-02T09:37:55;13.10;99.90
14924;DHT22;7554;43.600;1.480;2024-03-02T09:40:23;13.20;99.90
14924;DHT22;7554;43.600;1.480;2024-03-02T09:45:23;12.00;99.90
14924;DHT22;7554;43.600;1.480;2024-03-02T09:47:51;11.50;99.90
14924;DHT22;7554;43.600;1.480;2024-03-02T09:50:18;11.40;99.90
14924;DHT22;7554;43.600;1.480;2024-03-02T09:52:48;11.60;99.90
14924;DHT22;7554;43.600;1.480;2024-03-02T10:00:15;11.50;99.90
14924;DHT22;7554;43.600;1.480;2024-03-02T10:02:44;11.60;99.90
14924;DHT22;7554;43.600;1.480;2024-03-02T10:05:23;11.60;99.90
14924;DHT22;7554;43.600;1.480;2024-03-02T10:07:59;11.70;99.90
14924;DHT22;7554;43.600;1.480;2024-03-02T10:10:35;11.80;99.90
14924;DHT22;7554;43.600;1.480;2024-03-02T10:13:06;12.00;99.90
14924;DHT22;7554;43.600;1.480;2024-03-02T10:15:35;11.70;99.90
14924;DHT22;7554;43.600;1.480;2024-03-02T10:18:05;11.70;99.90
14924;DHT22;7554;43.600;1.480;2024-03-02T10:20:35;11.90;99.90
14924;DHT22;7554;43.600;1.480;2024-03-02T10:23:13;11.80;99.90
14924;DHT22;7554;43.600;1.480;2024-03-02T10:25:40;11.90;99.90
14924;DHT22;7554;43.600;1.480;2024-03-02T10:28:08;12.10;99.90
14924;DHT22;7554;43.600;1.480;2024-03-02T10:30:36;12.00;99.90
14924;DHT22;7554;43.600;1.480;2024-03-02T10:33:06;12.10;99.90
14924;DHT22;7554;43.600;1.480;2024-03-02T10:35:33;12.10;99.90
14924;DHT22;7554;43.600;1.480;2024-03-02T10:38:04;12.20;99.90
14924;DHT22;7554;43.600;1.480;2024-03-02T10:40:32;12.10;99.90
14924;DHT22;7554;43.600;1.480;2024-03-02T10:43:01;12.00;99.90
14924;DHT22;7554;43.600;1.480;2024-03-02T10:45:29;11.90;99.90
14924;DHT22;7554;43.600;1.480;2024-03-02T10:47:57;12.10;99.90
14924;DHT22;7554;43.600;1.480;2024-03-02T10:55:21;11.10;99.90
14924;DHT22;7554;43.600;1.480;2024-03-02T10:57:51;12.30;99.90
14924;DHT22;7554;43.600;1.480;2024-03-02T11:00:19;12.30;99.90
14924;DHT22;7554;43.600;1.480;2024-03-02T11:02:52;12.30;99.90
14924;DHT22;7554;43.600;1.480;2024-03-02T11:05:28;12.60;99.90
14924;DHT22;7554;43.600;1.480;2024-03-02T11:08:02;12.60;99.90
14924;DHT22;7554;43.600;1.480;2024-03-02T11:10:34;12.60;99.90
14924;DHT22;7554;43.600;1.480;2024-03-02T11:13:05;12.80;99.90
14924;DHT22;7554;43.600;1.480;2024-03-02T11:15:36;12.90;99.90
14924;DHT22;7554;43.600;1.480;2024-03-02T11:18:04;13.10;99.90
14924;DHT22;7554;43.600;1.480;2024-03-02T11:20:37;13.20;99.90
14924;DHT22;7554;43.600;1.480;2024-03-02T11:23:06;12.90;99.90
14924;DHT22;7554;43.600;1.480;2024-03-02T11:25:34;13.10;99.90
14924;DHT22;7554;43.600;1.480;2024-03-02T11:28:03;13.00;99.90
14924;DHT22;7554;43.600;1.480;2024-03-02T11:30:49;13.10;99.90
14924;DHT22;7554;43.600;1.480;2024-03-02T11:33:26;13.00;99.90
14924;DHT22;7554;43.600;1.480;2024-03-02T11:35:57;13.10;99.90
14924;DHT22;7554;43.600;1.480;2024-03-02T11:38:31;13.40;99.90
14924;DHT22;7554;43.600;1.480;2024-03-02T11:41:00;13.20;99.90
14924;DHT22;7554;43.600;1.480;2024-03-02T11:43:28;13.20;99.90
14924;DHT22;7554;43.600;1.480;2024-03-02T11:45:59;13.30;99.90
14924;DHT22;7554;43.600;1.480;2024-03-02T11:48:30;13.10;99.90
14924;DHT22;7554;43.600;1.480;2024-03-02T11:51:00;13.10;99.90
14924;DHT22;7554;43.600;1.480;2024-03-02T11:53:28;13.20;99.90
14924;DHT22;7554;43.600;1.480;2024-03-02T11:55:58;13.30;99.90
14924;DHT22;7554;43.600;1.480;2024-03-02T11:58:27;13.50;99.90
14924;DHT22;7554;43.600;1.480;2024-03-02T12:00:55;13.70;99.90
